Time;durP1;ratioP1;P1;durP2;ratioP2;P2;SDS_P1;SDS_P2;PMS_P1;PMS_P2;Temp;Humidity;BMP_temperature;BMP_pressure;BME280_temperature;BME280_humidity;BME280_pressure;Samples;Min_cycle;Max_cycle;Signal;HPM_P1;HPM_P2
2022/09/27 00:01:50;;;;;;;;;;;16.60;99.90;;;;;;5114687;28;19911;-64
2022/09/27 00:04:16;;;;;;;;;;;16.60;99.90;;;;;;5114633;28;19958;-64
2022/09/27 00:06:42;;;;;;;;;;;16.60;99.90;;;;;;5114898;28;20267;-65
2022/09/27 00:09:08;;;;;;;;;;;16.50;99.90;;;;;;5114817;28;20337;-64
2022/09/27 00:11:36;;;;;;;;;;;16.50;99.90;;;;;;5114546;28;19907;-64
2022/09/27 00:14:02;;;;;;;;;;;16.50;99.90;;;;;;5114786;28;19915;-64
2022/09/27 00:16:29;;;;;;;;;;;16.50;99.90;;;;;;5114301;28;19912;-64
2022/09/27 00:19:02;;;;;;;;;;;16.50;99.90;;;;;;5114398;28;19919;-64
2022/09/27 00:21:29;;;;;;;;;;;16.40;99.90;;;;;;5114345;28;19908;-64
2022/09/27 00:23:55;;;;;;;;;;;16.40;99.90;;;;;;5096046;28;19931;-64
2022/09/27 00:26:21;;;;;;;;;;;16.50;99.90;;;;;;5095985;28;19908;-64
2022/09/27 00:28:47;;;;;;;;;;;16.50;99.90;;;;;;5114236;28;20430;-64
2022/09/27 00:31:19;;;;;;;;;;;16.50;99.90;;;;;;5114024;28;19911;-64
2022/09/27 00:33:46;;;;;;;;;;;16.50;99.90;;;;;;5113753;28;20386;-64
2022/09/27 00:36:12;;;;;;;;;;;16.50;99.90;;;;;;5114110;28;19919;-64
2022/09/27 00:38:39;;;;;;;;;;;16.50;99.90;;;;;;5114108;28;20298;-63
2022/09/27 00:41:04;;;;;;;;;;;16.50;99.90;;;;;;5114400;28;19964;-63
2022/09/27 00:43:42;;;;;;;;;;;16.50;99.90;;;;;;5113725;28;19908;-64
2022/09/27 00:46:08;;;;;;;;;;;16.40;99.90;;;;;;5113773;28;19933;-64
2022/09/27 00:48:34;;;;;;;;;;;16.30;99.90;;;;;;5113477;28;20350;-63
2022/09/27 00:51:02;;;;;;;;;;;16.30;99.90;;;;;;5113988;28;19912;-65
2022/09/27 00:53:28;;;;;;;;;;;16.30;99.90;;;;;;5113956;28;20233;-64
2022/09/27 00:55:59;;;;;;;;;;;16.30;99.90;;;;;;5095525;28;19966;-64
2022/09/27 00:58:30;;;;;;;;;;;16.30;99.90;;;;;;5095623;28;19938;-64
2022/09/27 01:01:01;;;;;;;;;;;16.30;99.90;;;;;;5095574;28;19947;-64
2022/09/27 01:03:37;;;;;;;;;;;16.30;99.90;;;;;;5095631;28;19908;-65
2022/09/27 01:06:05;;;;;;;;;;;16.30;99.90;;;;;;5095540;28;19912;-65
2022/09/27 01:08:31;;;;;;;;;;;16.30;99.90;;;;;;5113808;28;19916;-63
2022/09/27 01:11:10;;;;;;;;;;;16.30;99.90;;;;;;5113771;28;20056;-63
2022/09/27 01:13:54;;;;;;;;;;;16.30;99.90;;;;;;5113814;28;19992;-64
2022/09/27 01:16:26;;;;;;;;;;;16.30;99.90;;;;;;5113649;28;19918;-65
2022/09/27 01:18:55;;;;;;;;;;;16.40;99.90;;;;;;5113726;28;19962;-64
2022/09/27 01:21:39;;;;;;;;;;;16.40;99.90;;;;;;5095407;28;19908;-65
2022/09/27 01:24:24;;;;;;;;;;;16.40;99.90;;;;;;5113659;28;19907;-65
2022/09/27 01:26:52;;;;;;;;;;;16.40;99.90;;;;;;5095309;28;19914;-66
2022/09/27 01:29:18;;;;;;;;;;;16.40;99.90;;;;;;5113570;28;19908;-65
2022/09/27 01:32:02;;;;;;;;;;;16.50;99.90;;;;;;5113664;28;20014;-63
2022/09/27 01:34:30;;;;;;;;;;;16.50;99.90;;;;;;5113512;28;19931;-64
2022/09/27 01:37:06;;;;;;;;;;;16.40;99.90;;;;;;5113529;28;19912;-64
2022/09/27 01:39:32;;;;;;;;;;;16.40;99.90;;;;;;5113605;28;19949;-65
2022/09/27 01:42:11;;;;;;;;;;;16.40;99.90;;;;;;5113531;28;19911;-65
2022/09/27 01:44:40;;;;;;;;;;;16.40;99.90;;;;;;5113177;28;20313;-63
2022/09/27 01:47:11;;;;;;;;;;;16.40;99.90;;;;;;5095108;28;20023;-64
2022/09/27 01:49:57;;;;;;;;;;;16.50;99.90;;;;;;5113476;28;20267;-64
2022/09/27 01:52:26;;;;;;;;;;;16.50;99.90;;;;;;5101958;28;19912;-65
2022/09/27 01:54:54;;;;;;;;;;;16.50;99.90;;;;;;5095062;28;20002;-65
2022/09/27 01:57:22;;;;;;;;;;;16.50;99.90;;;;;;5113341;28;19919;-64
2022/09/27 01:59:53;;;;;;;;;;;16.60;99.90;;;;;;5113461;28;19907;-65
2022/09/27 02:02:23;;;;;;;;;;;16.60;99.90;;;;;;5117009;28;19907;-63
2022/09/27 02:04:50;;;;;;;;;;;16.50;99.90;;;;;;5098695;28;19931;-63
2022/09/27 02:07:23;;;;;;;;;;;16.50;99.90;;;;;;5117213;28;19939;-63
2022/09/27 02:09:52;;;;;;;;;;;16.40;99.90;;;;;;5116886;28;19908;-62
2022/09/27 02:12:23;;;;;;;;;;;16.40;99.90;;;;;;5116857;28;19961;-63
2022/09/27 02:14:53;;;;;;;;;;;16.40;99.90;;;;;;5116675;28;20085;-63
2022/09/27 02:17:19;;;;;;;;;;;16.40;99.90;;;;;;5116392;28;20318;-63
2022/09/27 02:19:48;;;;;;;;;;;16.40;99.90;;;;;;5098342;28;19957;-62
2022/09/27 02:22:31;;;;;;;;;;;16.40;99.90;;;;;;5116653;28;19912;-63
2022/09/27 02:24:59;;;;;;;;;;;16.40;99.90;;;;;;5098282;28;19908;-64
2022/09/27 02:27:30;;;;;;;;;;;16.50;99.90;;;;;;5116523;28;20317;-64
2022/09/27 02:30:01;;;;;;;;;;;16.50;99.90;;;;;;5116452;28;19908;-64
2022/09/27 02:32:26;;;;;;;;;;;16.50;99.90;;;;;;5116273;28;19924;-64
2022/09/27 02:34:53;;;;;;;;;;;16.50;99.90;;;;;;5116296;28;19911;-64
2022/09/27 02:37:19;;;;;;;;;;;16.50;99.90;;;;;;5116314;28;19912;-64
2022/09/27 02:39:45;;;;;;;;;;;16.50;99.90;;;;;;5116091;28;19968;-64
2022/09/27 02:42:11;;;;;;;;;;;16.40;99.90;;;;;;5116279;28;19908;-64
2022/09/27 02:44:37;;;;;;;;;;;16.40;99.90;;;;;;5116192;28;20262;-64
2022/09/27 02:47:18;;;;;;;;;;;16.40;99.90;;;;;;5116147;28;19964;-64
2022/09/27 02:50:00;;;;;;;;;;;16.40;99.90;;;;;;5116116;28;19919;-64
2022/09/27 02:52:36;;;;;;;;;;;16.50;99.90;;;;;;5097727;28;19915;-64
2022/09/27 02:55:11;;;;;;;;;;;16.50;99.90;;;;;;5115960;28;19916;-64
2022/09/27 02:57:36;;;;;;;;;;;16.50;99.90;;;;;;5115979;28;19934;-64
2022/09/27 03:00:16;;;;;;;;;;;16.50;99.90;;;;;;5115901;28;20355;-64
2022/09/27 03:02:48;;;;;;;;;;;16.60;99.90;;;;;;5115877;28;19908;-64
2022/09/27 03:05:20;;;;;;;;;;;16.60;99.90;;;;;;5116115;28;20353;-64
2022/09/27 03:07:46;;;;;;;;;;;16.60;99.90;;;;;;5115749;28;19908;-64
2022/09/27 03:10:20;;;;;;;;;;;16.60;99.90;;;;;;5097313;28;19915;-64
2022/09/27 03:12:46;;;;;;;;;;;16.50;99.90;;;;;;5114985;28;19992;-64
2022/09/27 03:15:12;;;;;;;;;;;16.50;99.90;;;;;;5115508;28;20387;-64
2022/09/27 03:17:38;;;;;;;;;;;16.50;99.90;;;;;;5115519;28;19911;-64
2022/09/27 03:20:04;;;;;;;;;;;16.50;99.90;;;;;;5097122;28;19912;-64
2022/09/27 03:22:30;;;;;;;;;;;16.60;99.90;;;;;;5115479;28;19912;-64
2022/09/27 03:24:56;;;;;;;;;;;16.60;99.90;;;;;;5115399;28;19908;-64
2022/09/27 03:27:22;;;;;;;;;;;16.60;99.90;;;;;;5096986;28;19908;-65
2022/09/27 03:29:47;;;;;;;;;;;16.60;99.90;;;;;;5115256;28;19908;-64
2022/09/27 03:32:13;;;;;;;;;;;16.60;99.90;;;;;;5114898;28;19919;-65
2022/09/27 03:34:39;;;;;;;;;;;16.60;99.90;;;;;;5096768;28;20011;-65
2022/09/27 03:37:05;;;;;;;;;;;16.60;99.90;;;;;;5115419;28;19911;-64
2022/09/27 03:39:32;;;;;;;;;;;16.60;99.90;;;;;;5096783;28;19908;-64
2022/09/27 03:41:57;;;;;;;;;;;16.60;99.90;;;;;;5115043;28;19915;-64
2022/09/27 03:44:23;;;;;;;;;;;16.60;99.90;;;;;;5115084;28;19937;-64
2022/09/27 03:46:49;;;;;;;;;;;16.60;99.90;;;;;;5096705;28;19914;-64
2022/09/27 03:49:14;;;;;;;;;;;16.60;99.90;;;;;;5115190;28;19908;-64
2022/09/27 03:51:41;;;;;;;;;;;16.60;99.90;;;;;;5114863;28;19907;-64
2022/09/27 03:54:07;;;;;;;;;;;16.50;99.90;;;;;;5096310;28;19908;-64
2022/09/27 03:56:32;;;;;;;;;;;16.60;99.90;;;;;;5114402;28;19938;-64
2022/09/27 03:58:58;;;;;;;;;;;16.50;99.90;;;;;;5096392;28;19965;-64
2022/09/27 04:01:25;;;;;;;;;;;16.60;99.90;;;;;;5114418;28;19937;-64
2022/09/27 04:03:51;;;;;;;;;;;16.60;99.90;;;;;;5114653;28;19908;-64
2022/09/27 04:06:17;;;;;;;;;;;16.60;99.90;;;;;;5114941;28;19907;-64
2022/09/27 04:08:43;;;;;;;;;;;16.60;99.90;;;;;;5114586;28;19964;-64
2022/09/27 04:11:09;;;;;;;;;;;16.60;99.90;;;;;;5114597;28;19908;-64
2022/09/27 04:13:35;;;;;;;;;;;16.60;99.90;;;;;;5114521;28;19915;-65
2022/09/27 04:16:01;;;;;;;;;;;16.60;99.90;;;;;;5114509;28;20336;-65
2022/09/27 04:18:27;;;;;;;;;;;16.60;99.90;;;;;;5114414;28;19911;-65
2022/09/27 04:20:53;;;;;;;;;;;16.60;99.90;;;;;;5114352;28;20374;-65
2022/09/27 04:23:19;;;;;;;;;;;16.60;99.90;;;;;;5113649;28;19908;-65
2022/09/27 04:25:45;;;;;;;;;;;16.60;99.90;;;;;;5114305;28;19911;-64
2022/09/27 04:28:11;;;;;;;;;;;16.60;99.90;;;;;;5114265;28;19908;-64
2022/09/27 04:30:37;;;;;;;;;;;16.50;99.90;;;;;;5114177;28;19957;-64
2022/09/27 04:33:03;;;;;;;;;;;16.50;99.90;;;;;;5114173;28;20004;-64
2022/09/27 04:38:14;;;;;;;;;;;16.60;99.90;;;;;;5114202;28;19922;-64
2022/09/27 04:40:40;;;;;;;;;;;16.60;99.90;;;;;;5114107;28;20007;-64
2022/09/27 04:43:06;;;;;;;;;;;16.60;99.90;;;;;;5114080;28;19919;-64
2022/09/27 04:45:32;;;;;;;;;;;16.60;99.90;;;;;;5113749;28;19908;-64
2022/09/27 04:47:58;;;;;;;;;;;16.70;99.90;;;;;;5114004;28;19995;-64
2022/09/27 04:50:24;;;;;;;;;;;16.70;99.90;;;;;;5095696;28;19912;-64
2022/09/27 04:52:51;;;;;;;;;;;16.70;99.90;;;;;;5114294;28;20362;-64
2022/09/27 04:55:17;;;;;;;;;;;16.70;99.90;;;;;;5095589;28;19912;-64
2022/09/27 04:57:42;;;;;;;;;;;16.70;99.90;;;;;;5114208;28;19916;-64
2022/09/27 05:00:08;;;;;;;;;;;16.70;99.90;;;;;;5113918;28;19908;-64
2022/09/27 05:02:34;;;;;;;;;;;16.70;99.90;;;;;;5113872;28;19911;-64
2022/09/27 05:05:00;;;;;;;;;;;16.70;99.90;;;;;;5113885;28;19914;-64
2022/09/27 05:07:26;;;;;;;;;;;16.70;99.90;;;;;;5113837;28;20344;-64
2022/09/27 05:09:52;;;;;;;;;;;16.70;99.90;;;;;;5113831;28;19961;-64
2022/09/27 05:12:18;;;;;;;;;;;16.70;99.90;;;;;;5113813;28;19915;-63
2022/09/27 05:14:44;;;;;;;;;;;16.80;99.90;;;;;;5095392;28;19911;-63
2022/09/27 05:17:10;;;;;;;;;;;16.80;99.90;;;;;;5113716;28;20275;-63
2022/09/27 05:19:38;;;;;;;;;;;16.80;99.90;;;;;;5095298;28;19915;-64
2022/09/27 05:22:04;;;;;;;;;;;16.90;99.90;;;;;;5113649;28;19923;-64
2022/09/27 05:24:34;;;;;;;;;;;16.90;99.90;;;;;;5113390;28;19908;-65
2022/09/27 05:27:01;;;;;;;;;;;16.90;99.90;;;;;;5113652;28;19907;-65
2022/09/27 05:29:26;;;;;;;;;;;16.90;99.90;;;;;;5113597;28;19918;-64
2022/09/27 05:31:52;;;;;;;;;;;17.00;99.90;;;;;;5112871;28;20483;-65
2022/09/27 05:34:19;;;;;;;;;;;17.00;99.90;;;;;;5114469;28;20025;-65
2022/09/27 05:36:48;;;;;;;;;;;17.10;99.90;;;;;;5098916;28;19918;-64
2022/09/27 05:39:18;;;;;;;;;;;17.10;99.90;;;;;;5117346;28;19919;-64
2022/09/27 05:41:44;;;;;;;;;;;17.20;99.90;;;;;;5117071;28;20293;-64
2022/09/27 05:44:10;;;;;;;;;;;17.20;99.90;;;;;;5117327;28;19919;-64
2022/09/27 05:46:37;;;;;;;;;;;17.20;99.90;;;;;;5117233;28;19908;-64
2022/09/27 05:49:03;;;;;;;;;;;17.20;99.90;;;;;;5117176;28;19944;-64
2022/09/27 05:51:29;;;;;;;;;;;17.20;99.90;;;;;;5116889;28;20343;-64
2022/09/27 05:53:55;;;;;;;;;;;17.20;99.90;;;;;;5117236;28;19911;-64
2022/09/27 05:56:20;;;;;;;;;;;17.20;99.90;;;;;;5116954;28;20351;-64
2022/09/27 05:58:46;;;;;;;;;;;17.10;99.90;;;;;;5113425;28;20283;-65
2022/09/27 06:01:12;;;;;;;;;;;17.10;99.90;;;;;;5116791;28;20419;-65
2022/09/27 06:03:38;;;;;;;;;;;17.10;99.90;;;;;;5098023;28;20279;-65
2022/09/27 06:06:05;;;;;;;;;;;17.20;99.90;;;;;;5115778;28;20352;-66
2022/09/27 06:08:34;;;;;;;;;;;17.20;99.90;;;;;;5115989;28;19907;-66
2022/09/27 06:11:03;;;;;;;;;;;17.20;99.90;;;;;;5115667;28;19908;-66
2022/09/27 06:13:29;;;;;;;;;;;17.20;99.90;;;;;;5097367;28;20006;-66
2022/09/27 06:15:54;;;;;;;;;;;17.30;99.90;;;;;;5116077;28;20748;-66
2022/09/27 06:18:20;;;;;;;;;;;17.30;99.90;;;;;;5116103;28;20034;-65
2022/09/27 06:20:46;;;;;;;;;;;17.30;99.90;;;;;;5116334;28;19915;-65
2022/09/27 06:23:11;;;;;;;;;;;17.30;99.90;;;;;;5115829;28;20364;-65
2022/09/27 06:25:37;;;;;;;;;;;17.30;99.90;;;;;;5097890;28;19918;-67
2022/09/27 06:28:03;;;;;;;;;;;17.40;99.90;;;;;;5116411;28;19912;-64
2022/09/27 06:30:29;;;;;;;;;;;17.40;99.90;;;;;;5116164;28;19908;-64
2022/09/27 06:32:55;;;;;;;;;;;17.40;99.90;;;;;;5096665;28;19993;-63
2022/09/27 06:35:23;;;;;;;;;;;17.40;99.90;;;;;;5115823;28;19922;-64
2022/09/27 06:37:50;;;;;;;;;;;17.40;99.90;;;;;;5115803;28;20367;-64
2022/09/27 06:40:16;;;;;;;;;;;17.40;99.90;;;;;;5097515;28;19955;-68
2022/09/27 06:42:42;;;;;;;;;;;17.50;99.90;;;;;;5116104;28;19912;-73
2022/09/27 06:45:08;;;;;;;;;;;17.50;99.90;;;;;;5116009;28;19916;-66
2022/09/27 06:47:35;;;;;;;;;;;17.60;99.90;;;;;;5115144;28;20279;-65
2022/09/27 06:50:04;;;;;;;;;;;17.60;99.90;;;;;;5115528;28;19915;-65
2022/09/27 06:52:30;;;;;;;;;;;17.60;99.90;;;;;;5115572;28;19912;-65
2022/09/27 06:54:56;;;;;;;;;;;17.50;99.90;;;;;;5097377;28;19912;-65
2022/09/27 07:00:25;;;;;;;;;;;17.50;99.90;;;;;;5069752;28;20296;-65
2022/09/27 07:02:52;;;;;;;;;;;17.60;99.90;;;;;;5115597;28;19961;-64
2022/09/27 07:05:18;;;;;;;;;;;17.60;99.90;;;;;;5115671;28;20400;-65
2022/09/27 07:07:44;;;;;;;;;;;17.60;99.90;;;;;;5097057;28;19943;-64
2022/09/27 07:10:09;;;;;;;;;;;17.60;99.90;;;;;;5114902;28;19962;-64
2022/09/27 07:12:36;;;;;;;;;;;17.70;99.90;;;;;;5096534;28;19908;-64
2022/09/27 07:15:02;;;;;;;;;;;17.80;99.90;;;;;;5115005;28;20340;-64
2022/09/27 07:17:28;;;;;;;;;;;17.80;99.90;;;;;;5115517;28;19911;-64
2022/09/27 07:19:54;;;;;;;;;;;17.80;99.90;;;;;;5096716;28;20322;-64
2022/09/27 07:22:20;;;;;;;;;;;17.80;99.90;;;;;;5114703;28;19908;-65
2022/09/27 07:24:45;;;;;;;;;;;17.80;99.90;;;;;;5114837;28;20399;-63
2022/09/27 07:27:11;;;;;;;;;;;17.90;99.90;;;;;;5096694;28;20287;-64
2022/09/27 07:29:37;;;;;;;;;;;18.00;99.90;;;;;;5115006;28;20292;-64
2022/09/27 07:32:02;;;;;;;;;;;18.10;99.90;;;;;;5114254;28;19912;-63
2022/09/27 07:34:28;;;;;;;;;;;18.20;99.90;;;;;;5114710;28;19943;-65
2022/09/27 07:37:04;;;;;;;;;;;18.30;99.90;;;;;;5115051;28;20045;-64
2022/09/27 07:39:30;;;;;;;;;;;18.40;99.90;;;;;;5114889;28;20383;-65
2022/09/27 07:41:56;;;;;;;;;;;18.40;99.90;;;;;;5113733;28;19957;-65
2022/09/27 07:44:22;;;;;;;;;;;18.40;99.90;;;;;;5115008;28;20302;-63
2022/09/27 07:46:48;;;;;;;;;;;18.40;99.90;;;;;;5115303;28;19995;-63
2022/09/27 07:49:13;;;;;;;;;;;18.30;99.90;;;;;;5114668;28;19961;-63
2022/09/27 07:51:39;;;;;;;;;;;18.20;99.90;;;;;;5113562;28;19916;-63
2022/09/27 07:54:05;;;;;;;;;;;18.30;99.90;;;;;;5113518;28;19911;-64
2022/09/27 07:56:31;;;;;;;;;;;18.30;99.90;;;;;;5114727;28;20002;-64
2022/09/27 07:58:58;;;;;;;;;;;18.30;99.90;;;;;;5113438;28;19912;-64
2022/09/27 08:01:23;;;;;;;;;;;18.30;99.90;;;;;;5113382;28;19912;-64
2022/09/27 08:03:49;;;;;;;;;;;18.40;99.90;;;;;;5114915;28;19908;-64
2022/09/27 08:06:15;;;;;;;;;;;18.40;99.90;;;;;;5114680;28;19907;-64
2022/09/27 08:08:41;;;;;;;;;;;18.30;99.90;;;;;;5105281;28;19911;-67
2022/09/27 08:11:12;;;;;;;;;;;18.30;99.90;;;;;;5111149;28;20435;-66
2022/09/27 08:13:38;;;;;;;;;;;18.50;99.90;;;;;;5114121;28;19908;-67
2022/09/27 08:16:04;;;;;;;;;;;18.50;99.90;;;;;;5114248;28;19922;-65
2022/09/27 08:18:30;;;;;;;;;;;18.50;99.90;;;;;;5114159;28;19912;-67
2022/09/27 08:20:59;;;;;;;;;;;18.60;99.90;;;;;;5113892;28;20375;-68
2022/09/27 08:23:25;;;;;;;;;;;18.80;99.90;;;;;;5114279;28;19931;-67
2022/09/27 08:25:52;;;;;;;;;;;18.90;99.90;;;;;;5114285;28;19908;-65
2022/09/27 08:28:18;;;;;;;;;;;19.00;99.90;;;;;;5114057;28;19908;-64
2022/09/27 08:30:43;;;;;;;;;;;19.10;99.90;;;;;;5113849;28;19912;-64
2022/09/27 08:33:09;;;;;;;;;;;19.10;99.90;;;;;;5113451;28;19920;-64
2022/09/27 08:35:35;;;;;;;;;;;19.10;99.90;;;;;;5114168;28;19923;-66
2022/09/27 08:38:01;;;;;;;;;;;19.30;99.90;;;;;;5113774;28;19911;-65
2022/09/27 08:40:56;;;;;;;;;;;19.40;99.90;;;;;;5112825;28;20211;-64
2022/09/27 08:43:21;;;;;;;;;;;19.50;99.90;;;;;;5109831;28;19915;-65
2022/09/27 08:46:04;;;;;;;;;;;19.60;99.90;;;;;;5113923;28;19912;-65
2022/09/27 08:48:30;;;;;;;;;;;19.50;99.90;;;;;;5113843;28;19907;-66
2022/09/27 08:50:56;;;;;;;;;;;19.50;99.90;;;;;;5113711;28;19908;-67
2022/09/27 08:53:24;;;;;;;;;;;19.30;99.90;;;;;;5113812;28;19960;-67
2022/09/27 08:55:51;;;;;;;;;;;19.00;99.90;;;;;;5113953;28;19912;-67
2022/09/27 08:58:24;;;;;;;;;;;18.90;99.90;;;;;;5113606;28;20011;-68
2022/09/27 09:00:54;;;;;;;;;;;18.90;99.90;;;;;;5113780;28;19955;-66
2022/09/27 09:03:21;;;;;;;;;;;18.90;99.90;;;;;;5113789;28;19912;-66
2022/09/27 09:06:07;;;;;;;;;;;18.80;99.90;;;;;;5113726;28;19908;-65
2022/09/27 09:08:48;;;;;;;;;;;18.80;99.90;;;;;;5098736;28;20292;-64
2022/09/27 09:14:07;;;;;;;;;;;18.90;99.90;;;;;;5117528;28;20268;-66
2022/09/27 09:16:43;;;;;;;;;;;19.00;99.90;;;;;;5117733;28;19912;-63
2022/09/27 09:19:35;;;;;;;;;;;19.00;99.90;;;;;;5117583;28;19958;-63
2022/09/27 09:22:16;;;;;;;;;;;19.10;99.90;;;;;;5113068;28;19951;-63
2022/09/27 09:24:42;;;;;;;;;;;19.10;99.90;;;;;;5117600;28;19908;-65
2022/09/27 09:27:29;;;;;;;;;;;18.90;99.90;;;;;;5116232;28;19912;-65
2022/09/27 09:30:17;;;;;;;;;;;19.00;99.90;;;;;;5116735;28;19911;-68
2022/09/27 09:32:44;;;;;;;;;;;19.50;99.90;;;;;;5117172;28;20411;-64
2022/09/27 09:35:12;;;;;;;;;;;20.00;99.90;;;;;;5098465;28;19960;-66
2022/09/27 09:37:47;;;;;;;;;;;20.30;99.90;;;;;;5117179;28;19923;-66
2022/09/27 09:40:19;;;;;;;;;;;20.40;99.90;;;;;;5117300;28;19908;-65
2022/09/27 09:42:58;;;;;;;;;;;20.20;99.90;;;;;;5099076;28;19912;-64
2022/09/27 09:45:35;;;;;;;;;;;20.10;99.90;;;;;;5117404;28;20057;-65
2022/09/27 09:48:15;;;;;;;;;;;19.90;99.90;;;;;;5116964;28;19908;-65
2022/09/27 09:50:44;;;;;;;;;;;19.80;99.90;;;;;;5099058;28;19912;-67
2022/09/27 09:53:28;;;;;;;;;;;19.90;99.90;;;;;;5098819;28;19908;-67
2022/09/27 09:56:02;;;;;;;;;;;19.70;99.90;;;;;;5117088;28;19915;-69
2022/09/27 09:58:28;;;;;;;;;;;19.70;99.90;;;;;;5098538;28;19912;-66
2022/09/27 10:00:58;;;;;;;;;;;19.80;99.90;;;;;;5116980;28;19915;-67
2022/09/27 10:03:23;;;;;;;;;;;19.90;99.90;;;;;;5098594;28;19915;-66
2022/09/27 10:05:49;;;;;;;;;;;19.80;99.90;;;;;;5117001;28;19912;-69
2022/09/27 10:08:19;;;;;;;;;;;19.90;99.90;;;;;;5098510;28;19923;-64
2022/09/27 10:10:45;;;;;;;;;;;20.10;99.90;;;;;;5116667;28;19908;-68
2022/09/27 10:13:20;;;;;;;;;;;20.00;99.90;;;;;;5115100;28;20302;-66
2022/09/27 10:15:52;;;;;;;;;;;19.80;99.90;;;;;;5116241;28;19911;-68
2022/09/27 10:18:18;;;;;;;;;;;19.50;99.90;;;;;;5116760;28;19922;-66
2022/09/27 10:20:48;;;;;;;;;;;19.30;99.90;;;;;;5114046;28;19912;-67
2022/09/27 10:23:14;;;;;;;;;;;19.10;99.90;;;;;;5115232;28;19912;-65
2022/09/27 10:25:48;;;;;;;;;;;19.20;99.90;;;;;;5116569;28;19907;-67
2022/09/27 10:28:26;;;;;;;;;;;19.30;99.90;;;;;;5116825;28;19923;-66
2022/09/27 10:30:56;;;;;;;;;;;19.40;99.90;;;;;;5115071;28;19908;-68
2022/09/27 10:33:22;;;;;;;;;;;19.40;99.90;;;;;;5114519;28;20006;-66
2022/09/27 10:35:49;;;;;;;;;;;19.40;99.90;;;;;;5116340;28;19966;-65
2022/09/27 10:38:19;;;;;;;;;;;19.40;99.90;;;;;;5114776;28;20364;-64
2022/09/27 10:40:45;;;;;;;;;;;19.70;99.90;;;;;;5116166;28;19916;-68
2022/09/27 10:43:30;;;;;;;;;;;19.90;99.90;;;;;;5115245;28;20380;-67
2022/09/27 10:46:02;;;;;;;;;;;19.90;99.90;;;;;;5097421;28;19908;-70
2022/09/27 10:48:28;;;;;;;;;;;20.00;99.90;;;;;;5115932;28;19908;-69
2022/09/27 10:51:01;;;;;;;;;;;20.10;99.90;;;;;;5097426;28;20330;-68
2022/09/27 10:53:28;;;;;;;;;;;20.30;99.90;;;;;;5115977;28;19908;-66
2022/09/27 10:55:54;;;;;;;;;;;20.50;99.90;;;;;;5115871;28;19939;-66
2022/09/27 10:58:20;;;;;;;;;;;;;;;;;;5097617;28;19938;-67
2022/09/27 11:01:06;;;;;;;;;;;21.30;99.90;;;;;;5114529;28;20252;-67
2022/09/27 11:03:35;;;;;;;;;;;23.30;99.90;;;;;;5114540;28;19930;-68
2022/09/27 11:06:17;;;;;;;;;;;22.70;99.90;;;;;;5096203;28;20697;-67
2022/09/27 11:08:46;;;;;;;;;;;22.20;99.90;;;;;;5114743;28;19908;-68
2022/09/27 11:11:11;;;;;;;;;;;22.00;99.90;;;;;;5096048;28;19918;-69
2022/09/27 11:13:38;;;;;;;;;;;21.80;99.90;;;;;;5096007;28;19908;-70
2022/09/27 11:16:09;;;;;;;;;;;21.60;99.90;;;;;;5095403;28;20380;-68
2022/09/27 11:18:54;;;;;;;;;;;21.30;99.90;;;;;;5112380;28;19973;-67
2022/09/27 11:21:41;;;;;;;;;;;21.00;99.90;;;;;;5112283;28;19908;-71
2022/09/27 11:24:22;;;;;;;;;;;20.70;99.90;;;;;;5113380;28;19917;-68
2022/09/27 11:27:09;;;;;;;;;;;20.40;99.90;;;;;;5112010;28;19942;-66
2022/09/27 11:29:44;;;;;;;;;;;20.10;99.90;;;;;;5113420;28;19956;-69
2022/09/27 11:32:36;;;;;;;;;;;20.00;99.90;;;;;;5096291;28;19920;-69
2022/09/27 11:35:01;;;;;;;;;;;19.60;99.90;;;;;;5091730;27;19941;-67
2022/09/27 11:37:50;;;;;;;;;;;19.40;99.90;;;;;;5115225;28;19920;-67
2022/09/27 11:40:43;;;;;;;;;;;19.30;99.90;;;;;;5101157;28;19958;-68
2022/09/27 11:43:21;;;;;;;;;;;19.10;99.90;;;;;;5076329;28;20025;-68
2022/09/27 11:45:53;;;;;;;;;;;18.90;99.90;;;;;;5114980;28;19908;-68
2022/09/27 11:48:38;;;;;;;;;;;18.80;99.90;;;;;;5114975;28;19915;-68
2022/09/27 11:51:12;;;;;;;;;;;18.50;99.90;;;;;;5114602;28;19936;-67
2022/09/27 11:53:44;;;;;;;;;;;18.40;99.90;;;;;;5114926;28;19964;-69
2022/09/27 11:56:26;;;;;;;;;;;18.00;99.90;;;;;;5115001;28;19957;-70
2022/09/27 11:58:52;;;;;;;;;;;17.50;99.90;;;;;;5114803;28;19966;-70
2022/09/27 12:01:27;;;;;;;;;;;17.20;99.90;;;;;;5114711;28;19947;-67
2022/09/27 12:04:16;;;;;;;;;;;16.90;99.90;;;;;;5114572;28;19958;-68
2022/09/27 12:06:41;;;;;;;;;;;16.70;99.90;;;;;;5096419;28;19974;-71
2022/09/27 12:09:14;;;;;;;;;;;16.60;99.90;;;;;;5114508;28;19939;-67
2022/09/27 12:11:45;;;;;;;;;;;16.60;99.90;;;;;;5114461;28;19908;-71
2022/09/27 12:14:20;;;;;;;;;;;16.50;99.90;;;;;;5114823;28;19915;-67
2022/09/27 12:16:47;;;;;;;;;;;16.40;99.90;;;;;;5114366;28;19966;-68
2022/09/27 12:19:24;;;;;;;;;;;16.40;99.90;;;;;;5114355;28;19994;-71
2022/09/27 12:21:50;;;;;;;;;;;16.40;99.90;;;;;;5096157;28;19919;-71
2022/09/27 12:24:23;;;;;;;;;;;16.50;99.90;;;;;;5114214;28;19915;-68
2022/09/27 12:26:53;;;;;;;;;;;16.50;99.90;;;;;;5114322;28;19998;-71
2022/09/27 12:29:21;;;;;;;;;;;16.50;99.90;;;;;;5114209;28;19911;-70
2022/09/27 12:31:51;;;;;;;;;;;16.50;99.90;;;;;;5114171;28;19933;-70
2022/09/27 12:34:18;;;;;;;;;;;16.50;99.90;;;;;;5114149;28;19920;-68
2022/09/27 12:37:03;;;;;;;;;;;16.50;99.90;;;;;;5114071;28;19916;-69
2022/09/27 12:39:48;;;;;;;;;;;16.50;99.90;;;;;;5114118;28;19912;-71
2022/09/27 12:42:24;;;;;;;;;;;16.60;99.90;;;;;;5129015;27;19919;-69
2022/09/27 12:44:50;;;;;;;;;;;16.60;99.90;;;;;;5113361;28;19908;-71
2022/09/27 12:47:28;;;;;;;;;;;16.70;99.90;;;;;;5114079;28;20421;-67
2022/09/27 12:49:53;;;;;;;;;;;16.80;99.90;;;;;;5113926;28;20345;-70
2022/09/27 12:52:24;;;;;;;;;;;16.90;99.90;;;;;;5113890;28;19953;-69
2022/09/27 12:55:00;;;;;;;;;;;17.00;99.90;;;;;;5113907;28;19907;-68
2022/09/27 12:57:28;;;;;;;;;;;17.10;99.90;;;;;;5113966;28;19919;-68
2022/09/27 12:59:54;;;;;;;;;;;17.20;99.90;;;;;;5095560;28;19908;-69
2022/09/27 13:02:20;;;;;;;;;;;17.40;99.90;;;;;;5095504;28;19908;-68
2022/09/27 13:05:05;;;;;;;;;;;17.80;99.90;;;;;;5113540;28;19915;-68
2022/09/27 13:07:51;;;;;;;;;;;18.10;99.90;;;;;;5113846;28;19968;-67
2022/09/27 13:10:28;;;;;;;;;;;18.40;99.90;;;;;;5113780;28;19908;-68
2022/09/27 13:12:55;;;;;;;;;;;19.20;99.90;;;;;;5113454;28;19908;-67
2022/09/27 13:15:29;;;;;;;;;;;20.40;99.90;;;;;;5113379;28;19912;-68
2022/09/27 13:17:58;;;;;;;;;;;20.90;99.90;;;;;;5092641;28;19915;-71
2022/09/27 13:20:30;;;;;;;;;;;21.40;99.90;;;;;;5092971;28;20425;-70
2022/09/27 13:22:56;;;;;;;;;;;21.50;99.90;;;;;;5092981;28;20315;-68
2022/09/27 13:25:41;;;;;;;;;;;22.30;99.90;;;;;;5075123;28;20268;-69
2022/09/27 13:28:26;;;;;;;;;;;22.50;99.90;;;;;;5093381;28;20364;-72
2022/09/27 13:30:52;;;;;;;;;;;21.80;99.90;;;;;;5093242;28;19966;-70
2022/09/27 13:33:18;;;;;;;;;;;21.30;99.90;;;;;;5074984;28;19959;-69
2022/09/27 13:36:07;;;;;;;;;;;22.00;99.90;;;;;;5093134;28;20003;-70
2022/09/27 13:38:33;;;;;;;;;;;23.80;99.90;;;;;;5078135;28;19922;-70
2022/09/27 13:41:15;;;;;;;;;;;26.80;99.90;;;;;;5093151;28;20350;-69
2022/09/27 13:43:46;;;;;;;;;;;28.90;99.90;;;;;;5093163;28;19961;-71
2022/09/27 13:46:23;;;;;;;;;;;30.40;99.90;;;;;;5074979;28;19908;-71
2022/09/27 13:48:56;;;;;;;;;;;31.30;99.90;;;;;;5093116;28;19908;-71
2022/09/27 13:51:34;;;;;;;;;;;30.30;97.50;;;;;;5093080;28;19944;-70
2022/09/27 13:54:01;;;;;;;;;;;28.90;99.00;;;;;;5074847;28;20300;-71
2022/09/27 13:56:39;;;;;;;;;;;27.30;99.90;;;;;;5095636;28;19959;-72
2022/09/27 13:59:25;;;;;;;;;;;25.20;99.90;;;;;;5096717;28;19924;-69
2022/09/27 14:02:10;;;;;;;;;;;23.90;99.90;;;;;;5095545;28;19978;-71
2022/09/27 14:04:50;;;;;;;;;;;23.40;99.90;;;;;;5096610;28;20279;-70
2022/09/27 14:07:25;;;;;;;;;;;22.20;99.90;;;;;;5096476;28;19912;-70
2022/09/27 14:09:52;;;;;;;;;;;21.70;99.90;;;;;;5096137;28;20372;-72
2022/09/27 14:12:19;;;;;;;;;;;22.90;99.90;;;;;;5096453;28;19908;-72
2022/09/27 14:14:46;;;;;;;;;;;22.00;99.90;;;;;;5096696;28;20245;-70
2022/09/27 14:17:12;;;;;;;;;;;21.40;99.90;;;;;;5096277;28;19916;-70
2022/09/27 14:19:40;;;;;;;;;;;21.10;99.90;;;;;;5096357;28;19908;-70
2022/09/27 14:22:15;;;;;;;;;;;20.90;99.90;;;;;;5096229;28;19912;-67
2022/09/27 14:24:41;;;;;;;;;;;20.80;99.90;;;;;;5096239;28;19908;-70
2022/09/27 14:27:25;;;;;;;;;;;20.40;99.90;;;;;;5078040;28;19912;-71
2022/09/27 14:30:09;;;;;;;;;;;20.10;99.90;;;;;;5077903;28;19908;-72
2022/09/27 14:32:45;;;;;;;;;;;19.80;99.90;;;;;;5095824;28;19924;-67
2022/09/27 14:38:02;;;;;;;;;;;19.40;99.90;;;;;;5095692;28;20352;-69
2022/09/27 14:40:28;;;;;;;;;;;19.20;99.90;;;;;;5095874;28;20007;-71
2022/09/27 14:42:55;;;;;;;;;;;19.00;99.90;;;;;;5095855;28;20011;-68
2022/09/27 14:45:23;;;;;;;;;;;19.00;99.90;;;;;;5095822;28;19954;-68
2022/09/27 14:47:50;;;;;;;;;;;18.80;99.90;;;;;;5095825;28;19930;-69